Time;durP1;ratioP1;P1;durP2;ratioP2;P2;SDS_P1;SDS_P2;PMS_P1;PMS_P2;Temp;Humidity;BMP_temperature;BMP_pressure;BME280_temperature;BME280_humidity;BME280_pressure;Samples;Min_cycle;Max_cycle;Signal;HPM_P1;HPM_P2
2022/06/11 00:02:44;;;;;;;2.15;0.50;;;19.30;43.00;;;;;;2318219;54;20951;-73
2022/06/11 00:05:11;;;;;;;1.12;0.43;;;19.30;43.50;;;;;;2336197;54;21528;-75
2022/06/11 00:07:37;;;;;;;2.40;0.70;;;19.20;43.00;;;;;;2330059;54;21767;-73
2022/06/11 00:10:05;;;;;;;1.35;0.60;;;19.20;43.10;;;;;;2342774;54;21572;-75
2022/06/11 00:12:31;;;;;;;1.87;0.77;;;19.10;43.10;;;;;;2342497;55;20960;-73
2022/06/11 00:15:00;;;;;;;2.17;0.52;;;19.10;43.10;;;;;;2342884;55;20986;-73
2022/06/11 00:17:27;;;;;;;1.83;0.73;;;19.10;43.20;;;;;;2342323;55;20963;-74
2022/06/11 00:19:54;;;;;;;2.00;0.62;;;19.10;43.20;;;;;;2343041;55;21007;-74
2022/06/11 00:22:21;;;;;;;1.45;0.68;;;19.10;43.30;;;;;;2332963;54;21015;-74
2022/06/11 00:24:47;;;;;;;1.62;0.65;;;19.10;43.40;;;;;;2338073;52;21067;-73
2022/06/11 00:27:14;;;;;;;1.62;0.65;;;19.00;43.40;;;;;;2342174;54;20987;-74
2022/06/11 00:29:40;;;;;;;5.15;0.70;;;19.00;43.40;;;;;;2342786;55;21094;-74
2022/06/11 00:32:08;;;;;;;2.10;0.62;;;18.90;43.40;;;;;;2343180;55;21285;-74
2022/06/11 00:34:34;;;;;;;2.47;0.68;;;18.90;43.50;;;;;;2331546;54;21086;-74
2022/06/11 00:37:00;;;;;;;1.90;0.70;;;18.90;44.20;;;;;;2332748;54;20939;-74
2022/06/11 00:39:28;;;;;;;1.90;0.70;;;18.90;43.80;;;;;;2342173;55;21027;-72
2022/06/11 00:41:58;;;;;;;2.80;0.80;;;18.80;44.00;;;;;;2332474;54;21545;-74
2022/06/11 00:44:24;;;;;;;1.50;0.62;;;18.70;44.00;;;;;;2322925;53;20971;-75
2022/06/11 00:47:11;;;;;;;1.83;0.75;;;18.70;44.10;;;;;;2299858;55;21062;-74
2022/06/11 00:49:44;;;;;;;2.05;0.60;;;18.70;44.30;;;;;;2341404;55;21847;-74
2022/06/11 00:52:45;;;;;;;3.62;0.80;;;18.70;44.40;;;;;;2340401;54;21461;-73
2022/06/11 00:55:24;;;;;;;2.87;0.73;;;18.70;44.80;;;;;;2341854;55;20967;-74
2022/06/11 00:58:08;;;;;;;2.25;0.90;;;18.60;44.50;;;;;;2342254;55;21519;-73
2022/06/11 01:00:41;;;;;;;2.95;0.70;;;18.60;44.60;;;;;;2343930;55;20931;-72
2022/06/11 01:03:09;;;;;;;1.92;0.80;;;18.60;44.50;;;;;;2319532;54;20970;-74
2022/06/11 01:05:38;;;;;;;2.10;0.85;;;18.60;44.50;;;;;;2342370;55;21794;-74
2022/06/11 01:08:30;;;;;;;1.65;0.75;;;18.50;44.50;;;;;;2588801;53;21429;-73
2022/06/11 01:11:11;;;;;;;1.80;0.70;;;18.50;44.80;;;;;;2342685;55;20932;-74
2022/06/11 01:13:57;;;;;;;2.67;0.70;;;18.50;44.60;;;;;;2369683;53;20999;-73
2022/06/11 01:30:01;;;;;;;2.62;0.80;;;18.40;44.70;;;;;;2445925;53;21704;-75
2022/06/11 01:33:11;;;;;;;1.10;0.47;;;18.40;44.50;;;;;;2473836;53;23368;-75
2022/06/11 01:36:34;;;;;;;2.70;0.75;;;18.20;44.30;;;;;;2462187;53;20988;-74
2022/06/11 01:39:18;;;;;;;2.65;0.73;;;18.20;44.60;;;;;;2298619;55;21555;-75
2022/06/11 01:41:50;;;;;;;1.37;0.60;;;18.10;44.50;;;;;;2316798;54;21527;-73
2022/06/11 01:44:24;;;;;;;;;;;18.00;44.60;;;;;;2307143;54;21692;-72
2022/06/11 01:46:51;;;;;;;1.35;0.55;;;18.00;44.90;;;;;;2303130;54;20064;-74
2022/06/11 01:49:50;;;;;;;1.87;0.50;;;18.00;44.50;;;;;;2328960;54;20986;-72
2022/06/11 01:52:53;;;;;;;1.60;0.60;;;17.90;45.10;;;;;;2458391;53;20954;-74
2022/06/11 02:05:40;;;;;;;1.23;0.52;;;17.90;45.10;;;;;;2331825;53;20925;-73
2022/06/11 02:11:42;;;;;;;1.15;0.50;;;17.80;44.90;;;;;;2334125;53;21560;-73
2022/06/11 02:15:01;;;;;;;0.95;0.45;;;17.70;44.60;;;;;;2332251;54;21494;-74
2022/06/11 02:17:31;;;;;;;1.05;0.47;;;17.70;45.20;;;;;;2327790;54;21702;-73
2022/06/11 02:20:08;;;;;;;1.45;0.60;;;17.60;44.80;;;;;;2496602;53;21003;-73
2022/06/11 02:22:48;;;;;;;1.35;0.52;;;17.60;45.20;;;;;;2316571;54;20943;-75
2022/06/11 02:25:51;;;;;;;1.60;0.60;;;17.60;45.50;;;;;;2337857;53;21519;-75
2022/06/11 02:28:20;;;;;;;;;;;17.50;45.70;;;;;;2346614;53;21452;-74
2022/06/11 02:30:46;;;;;;;1.12;0.55;;;17.50;45.50;;;;;;2430650;52;20706;-74
2022/06/11 02:33:14;;;;;;;2.00;0.70;;;17.50;45.20;;;;;;2437700;52;20953;-73
2022/06/11 02:35:46;;;;;;;0.88;0.47;;;17.50;45.40;;;;;;2343367;53;20940;-73
2022/06/11 02:38:15;;;;;;;2.00;0.60;;;17.40;45.60;;;;;;2346851;54;21470;-71
2022/06/11 02:40:44;;;;;;;1.75;0.60;;;17.40;45.70;;;;;;2347191;53;21007;-73
2022/06/11 02:43:10;;;;;;;1.77;0.80;;;17.40;45.80;;;;;;2617287;52;21471;-73
2022/06/11 02:45:37;;;;;;;2.10;0.60;;;17.40;45.70;;;;;;2616988;52;20934;-73
2022/06/11 02:48:06;;;;;;;1.30;0.57;;;17.30;45.70;;;;;;2482972;52;21435;-73
2022/06/11 02:50:33;;;;;;;2.03;0.68;;;17.30;45.80;;;;;;2363450;53;21506;-74
2022/06/11 02:53:00;;;;;;;1.25;0.60;;;17.30;45.90;;;;;;2365607;53;20934;-73
2022/06/11 02:55:26;;;;;;;1.77;0.65;;;17.20;45.90;;;;;;2365625;53;20910;-75
2022/06/11 02:57:53;;;;;;;1.23;0.60;;;17.20;46.00;;;;;;2367847;53;21006;-72
2022/06/11 03:00:22;;;;;;;1.58;0.60;;;17.20;46.10;;;;;;2369094;53;20966;-73
2022/06/11 03:02:48;;;;;;;2.65;0.70;;;17.20;46.20;;;;;;2364787;53;21000;-71
2022/06/11 03:05:22;;;;;;;1.37;0.68;;;17.10;46.20;;;;;;2365944;53;21698;-75
2022/06/11 03:07:49;;;;;;;2.62;0.70;;;17.10;46.40;;;;;;2432216;53;21595;-73
2022/06/11 03:10:18;;;;;;;2.28;0.80;;;17.10;46.90;;;;;;2451355;53;20929;-72
2022/06/11 03:12:44;;;;;;;2.58;0.82;;;17.00;46.30;;;;;;2294592;54;21437;-73
2022/06/11 03:15:12;;;;;;;2.12;0.68;;;17.00;46.60;;;;;;2311314;53;21018;-72
2022/06/11 03:17:38;;;;;;;1.98;0.70;;;17.00;46.80;;;;;;2318353;53;21467;-74
2022/06/11 03:20:06;;;;;;;2.83;0.80;;;17.00;46.80;;;;;;2340340;54;20925;-72
2022/06/11 03:22:32;;;;;;;1.77;0.75;;;17.00;46.90;;;;;;2369663;53;20935;-73
2022/06/11 03:24:58;;;;;;;2.20;0.68;;;16.90;47.00;;;;;;2604276;52;21852;-75
2022/06/11 03:27:25;;;;;;;2.90;0.93;;;16.90;47.00;;;;;;2358147;53;20926;-75
2022/06/11 03:29:51;;;;;;;1.60;0.68;;;16.90;47.00;;;;;;2621657;52;20966;-72
2022/06/11 03:32:19;;;;;;;2.28;0.68;;;16.90;47.00;;;;;;2364299;53;21003;-73
2022/06/11 03:34:46;;;;;;;2.33;0.90;;;16.90;47.10;;;;;;2338368;53;21785;-73
2022/06/11 03:37:13;;;;;;;1.62;0.73;;;16.90;47.20;;;;;;2337229;53;20944;-74
2022/06/11 03:39:39;;;;;;;2.33;0.93;;;16.90;47.20;;;;;;2337034;53;20975;-73
2022/06/11 03:42:08;;;;;;;2.55;0.90;;;16.90;47.20;;;;;;2336870;53;21028;-74
2022/06/11 03:44:35;;;;;;;2.28;0.75;;;16.80;47.10;;;;;;2568815;53;20905;-74
2022/06/11 03:47:02;;;;;;;2.53;0.80;;;16.90;47.30;;;;;;2337834;53;20973;-72
2022/06/11 03:49:29;;;;;;;1.73;0.70;;;16.80;47.20;;;;;;2330769;54;20945;-73
2022/06/11 03:51:55;;;;;;;3.42;1.08;;;16.80;47.30;;;;;;2343900;53;21854;-72
2022/06/11 03:54:22;;;;;;;1.37;0.70;;;16.70;47.30;;;;;;2503712;53;21461;-72
2022/06/11 03:56:48;;;;;;;2.00;0.62;;;16.70;47.30;;;;;;2334613;53;20932;-75
2022/06/11 03:59:14;;;;;;;1.70;0.70;;;16.70;47.40;;;;;;2337306;53;21016;-72
2022/06/11 04:01:41;;;;;;;1.70;0.80;;;16.70;47.50;;;;;;2613300;52;20927;-76
2022/06/11 04:04:11;;;;;;;1.92;0.98;;;16.70;47.50;;;;;;2359589;53;20923;-73
2022/06/11 04:06:40;;;;;;;1.80;0.77;;;16.70;47.70;;;;;;2364469;53;20934;-72
2022/06/11 04:09:13;;;;;;;2.95;1.00;;;16.60;47.90;;;;;;2364749;53;20998;-73
2022/06/11 04:11:39;;;;;;;2.78;0.80;;;16.60;48.00;;;;;;2578505;52;21119;-72
2022/06/11 04:14:05;;;;;;;2.42;0.77;;;16.60;47.90;;;;;;2363298;53;21015;-76
2022/06/11 04:16:35;;;;;;;1.50;0.70;;;16.60;47.90;;;;;;2355864;53;20962;-73
2022/06/11 04:19:03;;;;;;;3.50;0.90;;;16.60;48.10;;;;;;2454424;52;21459;-73
2022/06/11 04:21:30;;;;;;;1.90;0.90;;;16.60;48.10;;;;;;2363060;53;20949;-74
2022/06/11 04:23:57;;;;;;;2.50;0.90;;;16.60;48.10;;;;;;2615592;52;20970;-72
2022/06/11 04:26:26;;;;;;;3.10;1.00;;;16.60;48.30;;;;;;2365920;53;20968;-73
2022/06/11 04:28:53;;;;;;;2.42;1.10;;;16.60;48.30;;;;;;2354136;53;20978;-75
2022/06/11 04:31:19;;;;;;;1.95;0.75;;;16.60;48.40;;;;;;2364446;53;20934;-73
2022/06/11 04:33:47;;;;;;;2.92;0.85;;;16.60;48.50;;;;;;2367118;53;21615;-74
2022/06/11 04:36:14;;;;;;;1.87;0.75;;;16.60;48.60;;;;;;2349171;53;21065;-72
2022/06/11 04:38:40;;;;;;;3.28;0.90;;;16.70;48.70;;;;;;2364290;53;20991;-74
2022/06/11 04:41:07;;;;;;;1.55;0.80;;;16.70;48.70;;;;;;2605820;52;21509;-74
2022/06/11 04:43:34;;;;;;;3.00;1.25;;;16.70;48.90;;;;;;2364662;53;21684;-72
2022/06/11 04:46:01;;;;;;;2.25;0.90;;;16.70;48.90;;;;;;2589636;52;21746;-74
2022/06/11 04:48:27;;;;;;;4.25;0.90;;;16.70;48.90;;;;;;2364500;53;20986;-72
2022/06/11 04:50:56;;;;;;;2.65;0.80;;;16.70;49.00;;;;;;2363997;53;20958;-74
2022/06/11 04:53:22;;;;;;;1.37;0.70;;;16.80;49.30;;;;;;2362648;53;20988;-73
2022/06/11 04:55:51;;;;;;;1.60;0.70;;;16.80;49.40;;;;;;2358926;53;20934;-73
2022/06/11 04:58:17;;;;;;;2.03;0.80;;;16.80;49.50;;;;;;2362573;53;21677;-73
2022/06/11 05:00:43;;;;;;;3.65;1.00;;;16.90;49.70;;;;;;2354802;53;20996;-73
2022/06/11 05:03:10;;;;;;;3.12;1.10;;;16.90;49.80;;;;;;2363227;53;20986;-73
2022/06/11 05:05:36;;;;;;;2.85;1.10;;;16.90;49.80;;;;;;2363559;53;20958;-73
2022/06/11 05:08:03;;;;;;;2.97;0.90;;;17.00;49.90;;;;;;2363630;53;20990;-74
2022/06/11 05:10:34;;;;;;;2.37;0.80;;;17.00;49.90;;;;;;2385223;52;20985;-73
2022/06/11 05:13:04;;;;;;;1.85;0.70;;;17.00;50.10;;;;;;2363989;53;20926;-74
2022/06/11 05:15:34;;;;;;;3.08;1.20;;;17.10;50.10;;;;;;2364254;53;20978;-75
2022/06/11 05:18:00;;;;;;;2.22;0.88;;;17.20;50.40;;;;;;2355741;53;21065;-76
2022/06/11 05:20:42;;;;;;;2.87;0.90;;;17.20;50.30;;;;;;2615292;52;21455;-75
2022/06/11 05:23:10;;;;;;;2.95;1.12;;;17.20;50.70;;;;;;2517742;53;20963;-74
2022/06/11 05:25:38;;;;;;;3.35;1.25;;;17.30;50.40;;;;;;2464784;52;21486;-74
2022/06/11 05:28:09;;;;;;;3.05;0.98;;;17.30;50.40;;;;;;2338290;53;20917;-74
2022/06/11 05:30:41;;;;;;;2.97;1.15;;;17.40;50.60;;;;;;2336682;53;20949;-72
2022/06/11 05:33:07;;;;;;;2.28;1.00;;;17.50;50.70;;;;;;2336159;53;21389;-75
2022/06/11 05:35:35;;;;;;;2.97;0.93;;;17.50;50.70;;;;;;2389246;53;20945;-74
2022/06/11 05:38:03;;;;;;;2.22;0.85;;;17.60;50.80;;;;;;2401823;53;20941;-73
2022/06/11 05:40:32;;;;;;;2.37;0.77;;;17.70;50.90;;;;;;2567310;52;20918;-74
2022/06/11 05:42:58;;;;;;;1.98;0.93;;;17.70;51.00;;;;;;2364059;53;21463;-73
2022/06/11 05:45:30;;;;;;;3.25;1.00;;;17.80;51.00;;;;;;2357168;53;20935;-73
2022/06/11 05:47:58;;;;;;;2.45;0.90;;;17.80;51.20;;;;;;2364383;53;21043;-73
2022/06/11 05:50:33;;;;;;;3.47;1.10;;;17.90;51.10;;;;;;2364334;53;20945;-73
2022/06/11 05:52:59;;;;;;;1.92;0.88;;;18.00;51.20;;;;;;2364142;53;20962;-74
2022/06/11 05:55:27;;;;;;;4.28;0.90;;;18.00;51.20;;;;;;2364037;53;20939;-74
2022/06/11 05:57:54;;;;;;;2.92;0.90;;;18.10;51.30;;;;;;2364103;53;20926;-74
2022/06/11 06:00:21;;;;;;;2.42;0.93;;;18.20;51.30;;;;;;2364627;53;20942;-73
2022/06/11 06:02:49;;;;;;;2.83;0.80;;;18.20;51.20;;;;;;2615463;52;20930;-73
2022/06/11 06:05:22;;;;;;;2.35;1.12;;;18.30;51.30;;;;;;2364581;53;20915;-73
2022/06/11 06:07:50;;;;;;;3.30;1.10;;;18.40;51.50;;;;;;2403886;52;20986;-73
2022/06/11 06:10:17;;;;;;;4.87;1.85;;;18.50;51.50;;;;;;2364106;53;20907;-74
2022/06/11 06:12:43;;;;;;;3.35;1.17;;;18.60;51.60;;;;;;2532146;52;20895;-75
2022/06/11 06:15:18;;;;;;;2.67;1.10;;;18.60;51.70;;;;;;2433215;52;20931;-75
2022/06/11 06:17:44;;;;;;;2.50;1.15;;;18.70;51.80;;;;;;2364323;53;21959;-74
2022/06/11 06:20:13;;;;;;;2.87;1.27;;;18.80;51.80;;;;;;2371180;52;20899;-75
2022/06/11 06:22:40;;;;;;;2.08;0.90;;;18.90;51.90;;;;;;2364527;53;21561;-74
2022/06/11 06:25:07;;;;;;;3.55;1.40;;;19.00;51.90;;;;;;2364133;53;21987;-72
2022/06/11 06:27:33;;;;;;;3.03;0.88;;;19.00;51.80;;;;;;2356997;53;21809;-75
2022/06/11 06:29:59;;;;;;;2.53;1.10;;;19.10;52.00;;;;;;2364370;53;20966;-73
2022/06/11 06:32:25;;;;;;;2.67;1.10;;;19.20;52.10;;;;;;2615446;52;21800;-74
2022/06/11 06:34:52;;;;;;;2.33;1.02;;;19.30;52.20;;;;;;2364176;53;20954;-73
2022/06/11 06:37:18;;;;;;;1.65;0.90;;;19.40;52.30;;;;;;2364470;53;20930;-73
2022/06/11 06:39:44;;;;;;;2.35;1.05;;;19.50;52.30;;;;;;2364507;53;20911;-74
2022/06/11 06:42:11;;;;;;;3.03;1.15;;;19.60;52.20;;;;;;2364531;53;21072;-74
2022/06/11 06:44:37;;;;;;;2.80;1.20;;;19.60;52.30;;;;;;2364330;53;21527;-75
2022/06/11 06:47:04;;;;;;;4.20;1.00;;;19.80;52.50;;;;;;2582042;52;21003;-74
2022/06/11 06:49:30;;;;;;;2.25;1.00;;;19.90;52.60;;;;;;2362098;53;21498;-74
2022/06/11 06:51:59;;;;;;;5.30;1.45;;;19.90;52.40;;;;;;2359332;53;21407;-75
2022/06/11 06:54:25;;;;;;;2.60;1.10;;;20.10;52.40;;;;;;2364622;53;20930;-73
2022/06/11 06:56:51;;;;;;;2.12;0.82;;;20.20;52.40;;;;;;2399270;52;20982;-74
2022/06/11 06:59:18;;;;;;;2.40;1.10;;;20.30;52.30;;;;;;2615286;52;21384;-73
2022/06/11 07:01:45;;;;;;;2.35;1.02;;;20.40;52.30;;;;;;2364503;53;20936;-75
2022/06/11 07:04:12;;;;;;;3.28;1.08;;;20.50;52.40;;;;;;2363665;53;20982;-74
2022/06/11 07:06:49;;;;;;;4.68;1.30;;;20.60;52.40;;;;;;2362408;53;20937;-72
2022/06/11 07:09:15;;;;;;;1.58;0.80;;;20.70;52.40;;;;;;2464198;52;21050;-74
2022/06/11 07:11:41;;;;;;;2.00;0.90;;;20.80;52.40;;;;;;2359240;53;21000;-72
2022/06/11 07:14:08;;;;;;;1.55;0.68;;;20.90;52.40;;;;;;2359387;53;20922;-73
2022/06/11 07:16:41;;;;;;;2.62;1.10;;;21.00;52.50;;;;;;2363573;53;21550;-73
2022/06/11 07:19:12;;;;;;;3.92;1.10;;;21.10;52.60;;;;;;2582604;52;20939;-72
2022/06/11 07:21:40;;;;;;;3.70;1.30;;;21.30;52.80;;;;;;2357586;53;20956;-73
2022/06/11 07:24:18;;;;;;;1.77;0.88;;;21.40;52.70;;;;;;2363363;53;21031;-72
2022/06/11 07:26:49;;;;;;;1.77;0.70;;;21.50;52.70;;;;;;2364325;53;20930;-74
2022/06/11 07:29:26;;;;;;;2.60;0.98;;;21.60;52.50;;;;;;2392298;52;21057;-73
2022/06/11 07:32:04;;;;;;;2.22;0.80;;;21.70;52.50;;;;;;2364493;53;20910;-75
2022/06/11 07:34:30;;;;;;;2.17;0.95;;;21.80;52.30;;;;;;2615082;52;20925;-72
2022/06/11 07:36:57;;;;;;;2.12;1.12;;;21.90;52.30;;;;;;2612835;52;20964;-74
2022/06/11 07:39:26;;;;;;;2.10;1.15;;;22.00;52.50;;;;;;2503422;52;20926;-75
2022/06/11 07:41:53;;;;;;;2.97;1.20;;;22.20;52.60;;;;;;2452560;53;20930;-75
2022/06/11 07:44:19;;;;;;;2.37;0.80;;;22.20;52.50;;;;;;2363493;53;20927;-75
2022/06/11 07:46:46;;;;;;;2.87;1.00;;;22.40;52.40;;;;;;2363290;53;20996;-73
2022/06/11 07:49:13;;;;;;;3.03;1.10;;;22.50;52.30;;;;;;2364130;53;21051;-74
2022/06/11 07:51:39;;;;;;;3.47;1.00;;;22.60;52.30;;;;;;2363978;53;20994;-77
2022/06/11 07:54:06;;;;;;;2.75;1.10;;;22.70;52.40;;;;;;2362824;53;20973;-73
2022/06/11 07:56:37;;;;;;;1.83;0.80;;;22.80;52.30;;;;;;2359661;53;21785;-75
2022/06/11 07:59:04;;;;;;;2.13;0.90;;;22.90;52.10;;;;;;2374499;53;21562;-77
2022/06/11 08:01:33;;;;;;;5.18;1.00;;;23.00;52.00;;;;;;2365984;53;20946;-75
2022/06/11 08:04:00;;;;;;;3.33;0.90;;;23.10;51.60;;;;;;2350668;53;20997;-75
2022/06/11 08:06:26;;;;;;;2.50;0.93;;;23.20;51.40;;;;;;2348855;53;21081;-74
2022/06/11 08:08:52;;;;;;;3.30;1.00;;;23.30;51.50;;;;;;2364211;53;20911;-80
2022/06/11 08:11:19;;;;;;;2.20;0.98;;;23.40;51.50;;;;;;2456370;52;21016;-75
2022/06/11 08:13:47;;;;;;;2.87;0.82;;;23.50;51.50;;;;;;2349213;53;20982;-79
2022/06/11 08:16:13;;;;;;;3.42;1.00;;;23.60;51.60;;;;;;2364340;52;20928;-78
2022/06/11 08:18:40;;;;;;;2.50;0.93;;;23.70;51.30;;;;;;2419276;53;20914;-74
2022/06/11 08:21:06;;;;;;;3.30;1.15;;;23.80;51.00;;;;;;2374270;52;20944;-77
2022/06/11 08:23:32;;;;;;;2.42;1.00;;;23.90;50.90;;;;;;2605286;52;21125;-73
2022/06/11 08:26:01;;;;;;;2.42;0.90;;;24.00;50.60;;;;;;2359514;53;20974;-75
2022/06/11 08:28:27;;;;;;;1.87;0.80;;;24.10;50.30;;;;;;2363854;53;20939;-73
2022/06/11 08:30:54;;;;;;;2.25;0.85;;;24.20;50.20;;;;;;2361360;53;21573;-75
2022/06/11 08:33:20;;;;;;;2.28;0.90;;;24.30;50.00;;;;;;2348697;53;21110;-74
2022/06/11 08:35:46;;;;;;;2.75;1.02;;;24.30;49.70;;;;;;2365163;53;21092;-74
2022/06/11 08:38:13;;;;;;;2.40;0.85;;;24.40;49.80;;;;;;2355768;53;20941;-73
2022/06/11 08:40:50;;;;;;;2.53;1.00;;;24.50;50.00;;;;;;2363550;53;21017;-75
2022/06/11 08:43:46;;;;;;;2.53;0.95;;;24.60;49.70;;;;;;2366099;53;20956;-73
2022/06/11 08:46:14;;;;;;;2.05;0.80;;;24.70;49.10;;;;;;2351114;53;21573;-74
2022/06/11 08:50:15;;;;;;;3.67;1.10;;;24.80;49.40;;;;;;2434058;52;21002;-74
2022/06/11 08:52:41;;;;;;;2.47;0.90;;;24.90;49.10;;;;;;2435397;52;20939;-75
2022/06/11 08:55:12;;;;;;;2.35;0.93;;;25.00;49.00;;;;;;2361776;53;21006;-75
2022/06/11 09:00:27;;;;;;;4.20;1.20;;;25.00;48.70;;;;;;2365854;52;21105;-75
2022/06/11 09:02:59;;;;;;;2.60;0.90;;;25.20;49.30;;;;;;2330452;53;20945;-76
2022/06/11 09:05:36;;;;;;;1.92;0.88;;;25.30;48.90;;;;;;2336902;53;21199;-74
2022/06/11 09:09:39;;;;;;;2.45;0.93;;;25.40;48.80;;;;;;2336869;53;20988;-74
2022/06/11 09:15:53;;;;;;;1.70;0.70;;;25.40;48.10;;;;;;2337012;53;20925;-75
2022/06/11 09:21:34;;;;;;;2.03;0.90;;;25.70;48.30;;;;;;2355826;53;20995;-73
2022/06/11 09:27:05;;;;;;;2.67;0.80;;;25.80;47.70;;;;;;2366025;53;21554;-75
2022/06/11 09:30:24;;;;;;;3.42;0.82;;;26.00;47.90;;;;;;2378667;52;20971;-75
2022/06/11 09:33:15;;;;;;;2.50;0.77;;;26.10;47.70;;;;;;2364522;53;21487;-74
2022/06/11 09:35:51;;;;;;;2.37;0.70;;;26.20;47.50;;;;;;2357629;53;21015;-74
2022/06/11 09:41:13;;;;;;;2.00;0.65;;;26.20;47.60;;;;;;2363247;53;21423;-75
2022/06/11 09:44:55;;;;;;;2.05;0.70;;;26.40;46.90;;;;;;2364175;53;20946;-75
2022/06/11 09:47:45;;;;;;;3.47;0.68;;;26.50;46.20;;;;;;2402246;52;21495;-74
2022/06/11 09:50:37;;;;;;;2.75;0.77;;;26.50;46.20;;;;;;2364237;53;21590;-74
2022/06/11 09:53:41;;;;;;;2.42;0.60;;;26.60;46.10;;;;;;2364449;53;20915;-75
2022/06/11 09:56:19;;;;;;;3.80;0.60;;;26.70;45.80;;;;;;2601140;52;21097;-72
2022/06/11 09:59:11;;;;;;;1.85;0.80;;;26.70;46.00;;;;;;2483245;52;20934;-74
2022/06/11 10:01:52;;;;;;;3.72;0.88;;;26.80;45.20;;;;;;2365084;53;20942;-74
2022/06/11 10:04:22;;;;;;;3.12;0.77;;;26.80;44.90;;;;;;2364759;53;21694;-74
2022/06/11 10:06:53;;;;;;;2.78;0.95;;;26.90;45.40;;;;;;2366074;53;21025;-74
2022/06/11 10:09:26;;;;;;;2.40;0.62;;;27.00;45.10;;;;;;2355062;53;21459;-73
2022/06/11 10:11:53;;;;;;;;;;;27.00;44.70;;;;;;2368973;52;20898;-73
2022/06/11 10:15:00;;;;;;;1.80;0.60;;;27.10;44.80;;;;;;2363150;53;20138;-73
2022/06/11 10:17:37;;;;;;;1.95;0.60;;;27.20;44.40;;;;;;2335293;54;20918;-74
2022/06/11 10:21:06;;;;;;;1.77;0.80;;;27.30;44.50;;;;;;2438862;52;21293;-72
2022/06/11 10:23:40;;;;;;;1.23;0.50;;;27.40;44.20;;;;;;2363282;53;21041;-73
2022/06/11 10:26:49;;;;;;;5.12;0.60;;;27.50;43.90;;;;;;2370662;53;21014;-75
2022/06/11 10:29:40;;;;;;;2.20;0.90;;;27.50;43.50;;;;;;2350075;53;21041;-73
2022/06/11 10:32:16;;;;;;;2.72;0.82;;;27.60;43.60;;;;;;2482552;52;20908;-75
2022/06/11 10:34:52;;;;;;;3.28;0.85;;;27.70;44.00;;;;;;2381577;52;20998;-72
2022/06/11 10:37:42;;;;;;;1.90;0.70;;;27.70;43.60;;;;;;2353401;53;20946;-73
2022/06/11 10:40:16;;;;;;;2.05;0.70;;;27.80;43.30;;;;;;2368036;53;20967;-72
2022/06/11 10:43:06;;;;;;;1.87;0.60;;;27.90;43.20;;;;;;2354696;53;20918;-73
2022/06/11 10:45:32;;;;;;;3.65;0.80;;;27.90;43.00;;;;;;2334341;53;20945;-73
2022/06/11 10:47:59;;;;;;;2.85;0.82;;;28.00;43.20;;;;;;2328208;53;20952;-73
2022/06/11 10:50:33;;;;;;;2.25;0.77;;;28.00;43.10;;;;;;2325786;53;21087;-73
2022/06/11 10:53:13;;;;;;;2.78;0.80;;;28.10;42.80;;;;;;2326627;54;21031;-73
2022/06/11 10:56:34;;;;;;;2.87;0.80;;;28.20;42.40;;;;;;2304145;53;21064;-73
2022/06/11 10:59:05;;;;;;;1.73;0.50;;;28.20;42.10;;;;;;2333802;53;20964;-73
2022/06/11 11:01:43;;;;;;;2.72;0.80;;;28.30;42.40;;;;;;2345516;53;20961;-75
2022/06/11 11:06:03;;;;;;;1.87;0.70;;;28.40;41.80;;;;;;2317430;54;20929;-73
2022/06/11 11:08:30;;;;;;;2.03;0.55;;;28.50;41.90;;;;;;2336807;53;21605;-73
2022/06/11 11:10:57;;;;;;;1.65;0.55;;;28.60;41.90;;;;;;2337503;53;20948;-73
2022/06/11 11:13:42;;;;;;;1.87;0.75;;;28.60;41.60;;;;;;2344174;53;20993;-73
2022/06/11 11:16:29;;;;;;;2.45;0.68;;;28.70;40.60;;;;;;2365174;54;20945;-74
2022/06/11 11:19:16;;;;;;;2.60;0.55;;;28.70;41.40;;;;;;2365379;54;20945;-72
2022/06/11 11:25:15;;;;;;;2.25;0.70;;;28.80;40.60;;;;;;2342437;53;20989;-74
2022/06/11 11:27:45;;;;;;;1.12;0.37;;;29.00;41.20;;;;;;2356096;54;20917;-83
2022/06/11 11:30:36;;;;;;;3.50;1.05;;;29.00;41.00;;;;;;2351353;53;20973;-79
2022/06/11 11:33:22;;;;;;;3.05;0.70;;;29.00;40.20;;;;;;2365412;54;20944;-74
2022/06/11 11:35:48;;;;;;;2.00;0.68;;;29.10;39.80;;;;;;2459414;52;20994;-74
2022/06/11 11:38:22;;;;;;;2.50;0.95;;;29.10;40.60;;;;;;2424031;52;21012;-73
2022/06/11 11:40:56;;;;;;;3.73;1.03;;;29.10;40.20;;;;;;2295500;53;21491;-80
2022/06/11 11:43:25;;;;;;;3.67;0.70;;;29.20;40.10;;;;;;2309518;53;20966;-74
2022/06/11 11:46:12;;;;;;;2.22;0.62;;;29.20;40.00;;;;;;2309117;53;21020;-75
2022/06/11 11:48:49;;;;;;;3.45;0.52;;;29.20;39.20;;;;;;2327666;54;21522;-75
2022/06/11 11:51:38;;;;;;;2.45;0.70;;;29.30;39.20;;;;;;2526031;53;21870;-74
2022/06/11 11:54:22;;;;;;;1.70;0.57;;;29.30;39.00;;;;;;2380592;53;20996;-75
2022/06/11 11:56:59;;;;;;;1.62;0.50;;;29.40;38.80;;;;;;2334968;54;20969;-74
2022/06/11 11:59:38;;;;;;;1.45;0.57;;;29.40;38.90;;;;;;2331974;54;21021;-79
2022/06/11 12:02:22;;;;;;;1.83;0.57;;;29.40;39.20;;;;;;2329657;54;21076;-78
2022/06/11 12:04:56;;;;;;;1.40;0.50;;;29.50;38.60;;;;;;2309214;54;20979;-74
2022/06/11 12:07:32;;;;;;;1.37;0.60;;;29.50;38.60;;;;;;2318594;54;21000;-75
2022/06/11 12:10:38;;;;;;;1.52;0.50;;;29.60;38.40;;;;;;2345146;53;21030;-75
2022/06/11 12:16:42;;;;;;;0.88;0.30;;;29.60;37.80;;;;;;2408822;53;20984;-76
2022/06/11 12:19:48;;;;;;;1.17;0.40;;;29.80;38.50;;;;;;2342241;53;21064;-74
2022/06/11 12:22:37;;;;;;;0.80;0.40;;;29.80;38.40;;;;;;2343527;53;21080;-77
2022/06/11 12:25:05;;;;;;;2.35;0.50;;;29.90;37.70;;;;;;2523355;52;20948;-77
2022/06/11 12:27:39;;;;;;;1.27;0.47;;;29.90;38.20;;;;;;2341384;53;21299;-76
2022/06/11 12:30:35;;;;;;;1.52;0.50;;;29.90;38.00;;;;;;2342561;53;20937;-77
2022/06/11 12:33:01;;;;;;;1.67;0.55;;;30.00;37.80;;;;;;2588491;52;20921;-75
2022/06/11 12:36:05;;;;;;;1.02;0.40;;;30.00;38.00;;;;;;2342249;53;21840;-74
2022/06/11 12:43:03;;;;;;;2.12;0.90;;;30.10;37.40;;;;;;2357154;53;21032;-74
2022/06/11 12:51:39;;;;;;;0.70;0.37;;;30.20;37.70;;;;;;2341994;53;21410;-75
2022/06/11 12:56:54;;;;;;;0.60;0.30;;;30.40;37.80;;;;;;2341329;53;22156;-75
2022/06/11 13:02:15;;;;;;;1.25;0.40;;;30.60;37.40;;;;;;2341610;53;20945;-82
2022/06/11 13:08:11;;;;;;;1.92;0.70;;;30.70;37.70;;;;;;2342369;53;21024;-75
2022/06/11 13:13:25;;;;;;;4.45;0.80;;;30.70;36.50;;;;;;2352036;53;20909;-75
2022/06/11 13:19:02;;;;;;;2.15;0.60;;;30.80;37.10;;;;;;2340081;53;21513;-78
2022/06/11 13:21:52;;;;;;;1.30;0.40;;;31.00;37.30;;;;;;2358706;53;20946;-74
2022/06/11 13:27:59;;;;;;;2.30;0.65;;;31.00;36.80;;;;;;2452586;52;20942;-75
2022/06/11 13:31:20;;;;;;;1.50;0.40;;;31.10;36.50;;;;;;2415216;52;21677;-74
2022/06/11 13:34:19;;;;;;;1.73;0.60;;;31.20;36.70;;;;;;2399981;52;21018;-74
2022/06/11 13:37:27;;;;;;;0.73;0.40;;;31.30;36.30;;;;;;2403637;53;20963;-79
2022/06/11 13:41:41;;;;;;;0.95;0.40;;;31.30;35.80;;;;;;2403411;52;21491;-76
2022/06/11 13:44:55;;;;;;;1.45;0.50;;;31.40;35.70;;;;;;2425908;52;20952;-74
2022/06/11 13:48:18;;;;;;;0.80;0.35;;;31.40;35.60;;;;;;2492871;52;21578;-74
2022/06/11 13:51:31;;;;;;;1.33;0.40;;;31.60;35.50;;;;;;2358144;53;20969;-74
2022/06/11 13:59:03;;;;;;;0.82;0.32;;;31.60;34.90;;;;;;2369064;53;20970;-74
2022/06/11 14:03:12;;;;;;;0.75;0.30;;;31.70;35.50;;;;;;2369346;53;20931;-75
2022/06/11 14:05:41;;;;;;;1.23;0.40;;;31.80;35.30;;;;;;2436067;52;20922;-75
2022/06/11 14:08:07;;;;;;;0.98;0.40;;;31.80;35.50;;;;;;2370022;53;20962;-76
2022/06/11 14:10:53;;;;;;;1.92;0.50;;;31.90;35.50;;;;;;2376379;52;20937;-76
2022/06/11 14:13:52;;;;;;;1.23;0.40;;;31.90;34.60;;;;;;2351111;53;20910;-73
2022/06/11 14:18:31;;;;;;;0.82;0.30;;;32.00;34.80;;;;;;2369568;53;21085;-75
2022/06/11 14:21:12;;;;;;;1.33;0.37;;;32.10;34.80;;;;;;2345130;53;20937;-75
2022/06/11 14:23:43;;;;;;;2.45;0.30;;;32.20;34.50;;;;;;2342041;53;21040;-73
2022/06/11 14:28:47;;;;;;;0.90;0.40;;;32.20;34.30;;;;;;2587966;52;20924;-75
2022/06/11 14:31:15;;;;;;;1.25;0.60;;;32.30;34.60;;;;;;2588914;52;21682;-75
2022/06/11 14:34:11;;;;;;;5.15;2.97;;;32.40;34.30;;;;;;2341791;53;20924;-74
2022/06/11 14:36:38;;;;;;;2.12;1.00;;;32.40;33.00;;;;;;2385679;52;20945;-77
2022/06/11 14:39:06;;;;;;;2.47;0.90;;;32.40;33.10;;;;;;2366420;53;21009;-74
2022/06/11 14:41:44;;;;;;;2.15;0.70;;;32.40;32.80;;;;;;2341959;53;20944;-75
2022/06/11 14:44:15;;;;;;;1.98;0.60;;;32.40;31.70;;;;;;2456022;52;20956;-78
2022/06/11 14:46:46;;;;;;;;;;;32.40;32.10;;;;;;2345393;53;20901;-76
2022/06/11 14:49:57;;;;;;;1.15;0.40;;;32.40;32.30;;;;;;2346070;53;20062;-77
2022/06/11 14:52:31;;;;;;;1.33;0.50;;;32.40;32.40;;;;;;2341794;53;20980;-74
2022/06/11 14:55:03;;;;;;;2.08;0.50;;;32.30;32.20;;;;;;2454247;52;20920;-74
2022/06/11 14:57:57;;;;;;;1.10;0.45;;;32.40;31.70;;;;;;2342239;53;20933;-74
2022/06/11 15:00:48;;;;;;;0.70;0.30;;;32.40;31.60;;;;;;2427027;52;20926;-75
2022/06/11 15:03:53;;;;;;;0.95;0.30;;;32.40;31.10;;;;;;2342596;53;20926;-76